Ashland, Virginia
Current Conditions -  °F | °C
As of 8:54 PM on Monday 22 Dec 2014 (Local Time) from KOFP Reporting Station
Haze Haze  
Wind Chill: 30°   Ceiling: 300
Heat Index: 35°   Visibility: 2.5mi
Dew Point: 34°   Wind: 6mph
Humidity: 96%   Direction: NA
Pressure: 30.11"   Gusts: NA
Location:  37.76°N, 77.48°W
Report Text: KOFP 230154Z AUTO VRB05KT 2 1/2SM BR OVC003 02/01 A3011 RMK AO2 SLP199 T00170011
Loading
Personal Weather Stations






























Interactive Weather Map New forecast layout! Learn more

10-Day Weather Forecast

Advertisements
Track Severe Weather on mobile